createdAt,value
2022-12-26T00:01:51.237Z,91.60
2022-12-26T00:04:50.127Z,91.80
2022-12-26T00:07:06.405Z,91.80
2022-12-26T00:09:34.375Z,91.40
2022-12-26T00:12:01.700Z,91.40
2022-12-26T00:14:28.871Z,91.40
2022-12-26T00:16:56.116Z,91.60
2022-12-26T00:19:24.130Z,91.60
2022-12-26T00:21:51.332Z,91.70
2022-12-26T00:24:18.502Z,91.70
2022-12-26T00:26:45.741Z,91.70
2022-12-26T00:29:12.944Z,91.60
2022-12-26T00:31:40.348Z,91.60
2022-12-26T00:34:07.572Z,91.60
2022-12-26T00:36:35.014Z,91.50
2022-12-26T00:39:03.584Z,91.50
2022-12-26T00:41:31.599Z,91.20
2022-12-26T00:44:00.159Z,91.40
2022-12-26T00:46:27.885Z,91.40
2022-12-26T00:48:55.293Z,91.40
2022-12-26T00:51:22.840Z,91.40
2022-12-26T00:53:50.304Z,91.40
2022-12-26T00:56:17.669Z,91.40
2022-12-26T00:58:45.031Z,91.40
2022-12-26T01:01:21.530Z,91.40
2022-12-26T01:03:50.103Z,91.40
2022-12-26T01:06:17.876Z,91.40
2022-12-26T01:08:45.384Z,91.40
2022-12-26T01:11:15.160Z,91.50
2022-12-26T01:13:43.304Z,91.60
2022-12-26T01:16:10.663Z,91.60
2022-12-26T01:18:38.015Z,91.60
2022-12-26T01:21:08.362Z,91.60
2022-12-26T01:23:35.916Z,91.60
2022-12-26T01:26:17.876Z,91.60
2022-12-26T01:28:50.122Z,91.60
2022-12-26T01:31:18.174Z,91.60
2022-12-26T01:33:45.765Z,91.70
2022-12-26T01:36:13.064Z,91.80
2022-12-26T01:38:40.281Z,91.90
2022-12-26T01:41:17.250Z,91.80
2022-12-26T01:43:49.926Z,91.90
2022-12-26T01:46:21.538Z,91.90
2022-12-26T01:48:49.264Z,91.90
2022-12-26T01:51:18.782Z,91.80
2022-12-26T01:53:49.132Z,91.80
2022-12-26T01:56:30.028Z,91.80
2022-12-26T01:59:05.675Z,92.00
2022-12-26T02:01:36.202Z,92.10
2022-12-26T02:04:24.881Z,92.10
2022-12-26T02:06:52.602Z,92.10
2022-12-26T02:09:20.676Z,92.10
2022-12-26T02:12:36.138Z,92.10
2022-12-26T02:14:43.062Z,92.20
2022-12-26T02:17:10.823Z,92.30
2022-12-26T02:20:04.672Z,92.20
2022-12-26T02:23:23.540Z,92.30
2022-12-26T02:26:05.930Z,92.30
2022-12-26T02:28:49.704Z,92.30
2022-12-26T02:31:48.446Z,92.40
2022-12-26T02:34:23.154Z,92.30
2022-12-26T02:37:28.428Z,92.30
2022-12-26T02:40:36.473Z,92.30
2022-12-26T02:43:37.039Z,92.40
2022-12-26T02:46:42.781Z,92.40
2022-12-26T02:49:15.914Z,92.40
2022-12-26T02:52:18.339Z,92.40
2022-12-26T02:55:09.918Z,92.50
2022-12-26T02:58:05.846Z,92.50
2022-12-26T03:00:53.781Z,92.50
2022-12-26T03:03:43.299Z,92.40
2022-12-26T03:06:34.276Z,92.40
2022-12-26T03:09:31.365Z,92.40
2022-12-26T03:12:41.614Z,92.50
2022-12-26T03:15:16.066Z,92.50
2022-12-26T03:18:05.857Z,92.50
2022-12-26T03:20:38.791Z,92.60
2022-12-26T03:23:09.093Z,92.50
2022-12-26T03:25:55.032Z,92.60
2022-12-26T03:28:23.409Z,92.60
2022-12-26T03:30:52.424Z,92.60
2022-12-26T03:33:43.745Z,92.60
2022-12-26T03:36:23.506Z,92.70
2022-12-26T03:38:58.816Z,92.70
2022-12-26T03:42:12.290Z,92.80
2022-12-26T03:45:14.640Z,92.80
2022-12-26T03:48:06.411Z,92.80
2022-12-26T03:51:01.663Z,92.80
2022-12-26T03:53:56.625Z,92.80
2022-12-26T03:56:57.394Z,92.70
2022-12-26T03:59:57.807Z,92.80
2022-12-26T04:02:45.584Z,92.80
2022-12-26T04:05:39.201Z,92.80
2022-12-26T04:08:46.728Z,92.70
2022-12-26T04:11:36.175Z,92.80
2022-12-26T04:14:41.529Z,92.70
2022-12-26T04:17:39.920Z,92.80
2022-12-26T04:20:20.461Z,92.80
2022-12-26T04:23:12.618Z,92.90
2022-12-26T04:26:11.441Z,92.90
2022-12-26T04:28:57.157Z,92.90
2022-12-26T04:31:52.018Z,92.80
2022-12-26T04:34:48.189Z,92.90
2022-12-26T04:37:41.496Z,92.90
2022-12-26T04:40:32.354Z,92.90
2022-12-26T04:43:47.225Z,92.90
2022-12-26T04:46:07.082Z,92.80
2022-12-26T04:49:00.142Z,92.90
2022-12-26T04:51:27.640Z,92.90
2022-12-26T04:53:54.840Z,92.90
2022-12-26T04:56:22.093Z,92.90
2022-12-26T04:58:50.149Z,92.90
2022-12-26T05:01:36.057Z,92.90
2022-12-26T05:04:21.937Z,92.90
2022-12-26T05:07:07.835Z,92.90
2022-12-26T05:09:35.516Z,92.90
2022-12-26T05:12:11.488Z,92.90
2022-12-26T05:14:38.789Z,92.90
2022-12-26T05:17:26.209Z,93.00
2022-12-26T05:20:12.089Z,93.00
2022-12-26T05:23:00.568Z,93.00
2022-12-26T05:25:56.287Z,92.90
2022-12-26T05:28:41.904Z,92.90
2022-12-26T05:31:15.252Z,93.00
2022-12-26T05:34:01.453Z,92.90
2022-12-26T05:36:39.368Z,93.00
2022-12-26T05:39:07.646Z,93.00
2022-12-26T05:41:35.944Z,92.90
2022-12-26T05:44:03.375Z,92.90
2022-12-26T05:46:30.750Z,93.00
2022-12-26T05:48:57.936Z,92.80
2022-12-26T05:51:25.418Z,92.90
2022-12-26T05:53:52.739Z,92.90
2022-12-26T05:56:20.732Z,92.90
2022-12-26T05:58:48.416Z,92.90
2022-12-26T06:01:18.346Z,92.90
2022-12-26T06:03:53.771Z,92.90
2022-12-26T06:06:21.996Z,92.90
2022-12-26T06:08:54.677Z,92.80
2022-12-26T06:11:23.115Z,92.80
2022-12-26T06:13:50.289Z,92.80
2022-12-26T06:16:18.527Z,92.70
2022-12-26T06:18:46.359Z,92.70
2022-12-26T06:21:18.053Z,92.80
2022-12-26T06:23:45.475Z,92.80
2022-12-26T06:26:13.134Z,93.30
2022-12-26T06:28:41.839Z,93.00
2022-12-26T06:31:12.645Z,93.00
2022-12-26T06:33:40.279Z,93.00
2022-12-26T06:36:10.655Z,93.00
2022-12-26T06:38:38.178Z,93.00
2022-12-26T06:41:07.100Z,93.10
2022-12-26T06:43:34.730Z,93.00
2022-12-26T06:46:04.471Z,93.10
2022-12-26T06:48:32.114Z,93.10
2022-12-26T06:51:04.342Z,93.10
2022-12-26T06:53:33.583Z,93.10
2022-12-26T06:56:15.743Z,93.10
2022-12-26T06:58:43.519Z,93.10
2022-12-26T07:01:14.388Z,93.10
2022-12-26T07:03:50.461Z,93.10
2022-12-26T07:06:33.227Z,93.10
2022-12-26T07:09:06.064Z,93.10
2022-12-26T07:11:35.277Z,93.20
2022-12-26T07:14:03.197Z,93.20
2022-12-26T07:16:30.530Z,93.20
2022-12-26T07:19:00.234Z,93.20
2022-12-26T07:21:28.540Z,93.20
2022-12-26T07:23:56.260Z,93.20
2022-12-26T07:26:25.680Z,93.20
2022-12-26T07:28:54.710Z,93.20
2022-12-26T07:31:22.151Z,93.20
2022-12-26T07:33:51.158Z,93.30
2022-12-26T07:36:19.358Z,93.30
2022-12-26T07:38:47.244Z,93.20
2022-12-26T07:41:33.462Z,93.30
2022-12-26T07:44:01.033Z,93.30
2022-12-26T07:46:28.421Z,93.30
2022-12-26T07:48:55.688Z,93.20
2022-12-26T07:51:23.137Z,93.30
2022-12-26T07:53:50.403Z,93.30
2022-12-26T07:56:17.613Z,93.10
2022-12-26T07:58:48.660Z,93.20
2022-12-26T08:01:16.404Z,93.20
2022-12-26T08:03:44.400Z,92.70
2022-12-26T08:06:11.963Z,92.60
2022-12-26T08:08:41.098Z,92.50
2022-12-26T08:11:16.740Z,92.50
2022-12-26T08:13:45.190Z,92.60
2022-12-26T08:16:14.918Z,92.70
2022-12-26T08:18:43.067Z,92.60
2022-12-26T08:21:11.533Z,92.70
2022-12-26T08:23:39.056Z,92.60
2022-12-26T08:26:11.811Z,92.50
2022-12-26T08:28:39.417Z,92.40
2022-12-26T08:31:08.558Z,92.40
2022-12-26T08:33:37.307Z,92.50
2022-12-26T08:36:10.592Z,92.30
2022-12-26T08:38:37.807Z,92.30
2022-12-26T08:41:05.869Z,92.40
2022-12-26T08:44:03.531Z,92.30
2022-12-26T08:46:22.538Z,92.10
2022-12-26T08:48:51.174Z,92.10
2022-12-26T08:51:25.359Z,92.20
2022-12-26T08:53:54.777Z,92.00
2022-12-26T08:56:25.575Z,92.00
2022-12-26T08:58:53.629Z,91.80
2022-12-26T09:01:24.953Z,92.10
2022-12-26T09:03:54.065Z,92.10
2022-12-26T09:06:21.908Z,92.20
2022-12-26T09:08:49.676Z,92.30
2022-12-26T09:11:21.882Z,92.10
2022-12-26T09:13:50.294Z,92.10
2022-12-26T09:16:23.068Z,92.00
2022-12-26T09:18:56.193Z,91.90
2022-12-26T09:21:24.645Z,91.90
2022-12-26T09:24:04.164Z,92.00
2022-12-26T09:26:33.543Z,91.80
2022-12-26T09:29:01.548Z,92.00
2022-12-26T09:31:32.878Z,91.80
2022-12-26T09:34:03.087Z,92.00
2022-12-26T09:36:33.921Z,91.80
2022-12-26T09:39:01.577Z,91.70
2022-12-26T09:41:47.758Z,91.70
2022-12-26T09:44:40.827Z,91.70
2022-12-26T09:47:25.405Z,91.60
2022-12-26T09:50:05.898Z,91.60
2022-12-26T09:52:54.410Z,91.60
2022-12-26T09:55:53.026Z,91.40
2022-12-26T09:58:26.597Z,91.40
2022-12-26T10:00:57.334Z,91.30
2022-12-26T10:03:27.260Z,91.30
2022-12-26T10:06:12.376Z,91.30
2022-12-26T10:09:12.744Z,91.30
2022-12-26T10:11:51.448Z,91.20
2022-12-26T10:14:40.663Z,91.20
2022-12-26T10:17:38.648Z,91.30
2022-12-26T10:20:25.152Z,91.20
2022-12-26T10:23:13.318Z,91.10
2022-12-26T10:25:53.369Z,90.90
2022-12-26T10:29:04.964Z,90.80
2022-12-26T10:34:32.184Z,90.90
2022-12-26T10:37:03.619Z,90.80
2022-12-26T10:39:38.116Z,90.80
2022-12-26T10:42:23.484Z,90.80
2022-12-26T10:44:50.664Z,90.80
2022-12-26T10:47:28.576Z,90.80
2022-12-26T10:50:01.188Z,90.80
2022-12-26T10:52:37.216Z,90.90
2022-12-26T10:55:27.901Z,90.80
2022-12-26T10:57:53.410Z,90.70
2022-12-26T11:00:27.157Z,90.40
2022-12-26T11:03:13.348Z,90.10
2022-12-26T11:08:49.666Z,89.80
2022-12-26T11:11:45.976Z,89.70
2022-12-26T11:14:30.141Z,90.00
2022-12-26T11:17:30.486Z,90.00
2022-12-26T11:20:16.711Z,88.70
2022-12-26T11:22:45.541Z,89.80
2022-12-26T11:25:18.381Z,89.90
2022-12-26T11:27:55.225Z,89.40
2022-12-26T11:30:24.879Z,89.40
2022-12-26T11:33:13.721Z,89.60
2022-12-26T11:35:57.669Z,89.60
2022-12-26T11:38:44.429Z,89.30
2022-12-26T11:41:31.719Z,89.00
2022-12-26T11:44:30.305Z,89.40
2022-12-26T11:47:02.257Z,89.90
2022-12-26T11:49:39.602Z,89.10
2022-12-26T11:52:37.722Z,88.80
2022-12-26T11:55:27.315Z,88.70
2022-12-26T11:58:06.857Z,89.00
2022-12-26T12:00:39.321Z,88.90
2022-12-26T12:03:18.676Z,88.50
2022-12-26T12:06:03.121Z,89.00
2022-12-26T12:08:48.923Z,88.70
2022-12-26T12:11:54.555Z,88.60
2022-12-26T12:14:54.375Z,88.30
2022-12-26T12:17:29.827Z,88.30
2022-12-26T12:20:30.573Z,88.30
2022-12-26T12:23:26.477Z,88.30
2022-12-26T12:26:02.669Z,88.40
2022-12-26T12:28:30.085Z,88.50
2022-12-26T12:31:09.393Z,88.00
2022-12-26T12:33:48.940Z,88.30
2022-12-26T12:36:23.257Z,89.00
2022-12-26T12:39:13.393Z,88.10
2022-12-26T12:41:51.898Z,87.90
2022-12-26T12:44:50.372Z,87.90
2022-12-26T12:47:35.925Z,87.90
2022-12-26T12:50:35.838Z,87.90
2022-12-26T12:53:47.709Z,87.70
2022-12-26T12:56:42.425Z,87.50
2022-12-26T12:59:35.362Z,87.50
2022-12-26T13:02:22.794Z,87.80
2022-12-26T13:05:00.947Z,87.50
2022-12-26T13:07:47.201Z,87.60
2022-12-26T13:10:26.463Z,87.60
2022-12-26T13:12:55.168Z,87.60
2022-12-26T13:15:40.757Z,87.50
2022-12-26T13:18:14.968Z,87.90
2022-12-26T13:20:56.023Z,87.80
2022-12-26T13:23:50.511Z,87.70
2022-12-26T13:26:52.927Z,87.80
2022-12-26T13:29:23.230Z,88.30
2022-12-26T13:31:52.497Z,87.90
2022-12-26T13:34:21.528Z,88.10
2022-12-26T13:36:51.192Z,88.10
2022-12-26T13:39:39.965Z,88.30
2022-12-26T13:42:28.619Z,88.30
2022-12-26T13:44:55.904Z,88.40
2022-12-26T13:47:43.521Z,88.40
2022-12-26T13:50:53.477Z,88.40
2022-12-26T13:53:26.119Z,88.40
2022-12-26T13:56:04.638Z,88.30
2022-12-26T13:58:53.064Z,88.30
2022-12-26T14:01:32.783Z,88.50
2022-12-26T14:04:26.699Z,88.40
2022-12-26T14:07:05.718Z,88.60
2022-12-26T14:10:05.982Z,88.80
2022-12-26T14:12:58.140Z,88.90
2022-12-26T14:15:51.194Z,88.80
2022-12-26T14:18:47.862Z,88.90
2022-12-26T14:21:39.461Z,88.90
2022-12-26T14:24:12.758Z,88.90
2022-12-26T14:27:12.560Z,89.00
2022-12-26T14:29:59.208Z,89.20
2022-12-26T14:32:40.884Z,89.20
2022-12-26T14:35:34.047Z,89.30
2022-12-26T14:38:39.297Z,89.50
2022-12-26T14:41:34.188Z,89.60
2022-12-26T14:44:35.793Z,90.30
2022-12-26T14:47:04.471Z,90.50
2022-12-26T14:49:35.470Z,90.50
2022-12-26T14:52:25.454Z,90.70
2022-12-26T14:54:53.625Z,90.80
2022-12-26T14:57:49.020Z,90.80
2022-12-26T15:00:28.021Z,90.90
2022-12-26T15:03:01.765Z,91.00
2022-12-26T15:05:50.379Z,91.30
2022-12-26T15:08:44.784Z,91.00
2022-12-26T15:11:39.092Z,91.10
2022-12-26T15:14:22.318Z,91.20
2022-12-26T15:17:28.348Z,91.10
2022-12-26T15:20:22.113Z,91.20
2022-12-26T15:23:37.873Z,91.20
2022-12-26T15:26:27.284Z,91.50
2022-12-26T15:29:00.456Z,91.50
2022-12-26T15:32:12.664Z,91.60
2022-12-26T15:35:06.453Z,91.80
2022-12-26T15:37:56.633Z,92.00
2022-12-26T15:40:28.774Z,92.00
2022-12-26T15:43:09.970Z,92.30
2022-12-26T15:46:18.285Z,92.30
2022-12-26T15:49:30.791Z,92.40
2022-12-26T15:52:34.204Z,92.50
2022-12-26T15:55:35.315Z,92.80
2022-12-26T15:58:30.184Z,92.80
2022-12-26T16:00:59.344Z,93.00
2022-12-26T16:03:45.931Z,93.10
2022-12-26T16:07:01.876Z,93.10
2022-12-26T16:09:45.567Z,93.20
2022-12-26T16:12:35.466Z,93.20
2022-12-26T16:15:11.740Z,93.20
2022-12-26T16:17:40.070Z,93.10
2022-12-26T16:20:48.767Z,93.10
2022-12-26T16:23:23.832Z,93.10
2022-12-26T16:25:53.586Z,93.10
2022-12-26T16:28:42.444Z,93.10
2022-12-26T16:31:16.302Z,93.10
2022-12-26T16:33:44.231Z,93.10
2022-12-26T16:36:21.836Z,93.10
2022-12-26T16:38:52.847Z,93.10
2022-12-26T16:41:22.442Z,93.20
2022-12-26T16:43:52.947Z,93.30
2022-12-26T16:46:26.629Z,93.40
2022-12-26T16:48:59.972Z,93.40
2022-12-26T16:51:44.233Z,93.50
2022-12-26T16:54:21.109Z,93.50
2022-12-26T16:57:09.452Z,93.60
2022-12-26T16:59:49.976Z,93.70
2022-12-26T17:02:22.728Z,93.70
2022-12-26T17:05:32.819Z,94.10
2022-12-26T17:08:02.091Z,93.80
2022-12-26T17:10:37.348Z,93.80
2022-12-26T17:13:09.176Z,93.80
2022-12-26T17:15:49.947Z,93.80
2022-12-26T17:18:39.720Z,93.70
2022-12-26T17:21:30.018Z,93.70
2022-12-26T17:24:09.593Z,93.70
2022-12-26T17:26:38.473Z,93.60
2022-12-26T17:29:05.686Z,93.50
2022-12-26T17:31:40.547Z,93.50
2022-12-26T17:34:28.054Z,93.50
2022-12-26T17:39:43.990Z,93.60
2022-12-26T17:42:12.989Z,93.50
2022-12-26T17:44:45.549Z,93.30
2022-12-26T17:47:20.822Z,93.20
2022-12-26T17:49:51.048Z,93.20
2022-12-26T17:52:24.039Z,93.00
2022-12-26T17:54:52.413Z,93.30
2022-12-26T17:57:24.584Z,93.50
2022-12-26T17:59:53.229Z,93.50
2022-12-26T18:02:21.035Z,93.30
2022-12-26T18:04:49.236Z,93.30
2022-12-26T18:07:30.862Z,93.20
2022-12-26T18:10:02.332Z,93.30
2022-12-26T18:12:29.552Z,93.20
2022-12-26T18:15:02.187Z,93.30
2022-12-26T18:17:32.847Z,93.20
2022-12-26T18:20:02.480Z,93.30
2022-12-26T18:22:30.111Z,93.30
2022-12-26T18:24:57.385Z,93.30
2022-12-26T18:27:31.662Z,93.30
2022-12-26T18:30:00.003Z,93.30
2022-12-26T18:32:30.168Z,93.30
2022-12-26T18:34:58.172Z,93.20
2022-12-26T18:37:29.923Z,93.30
2022-12-26T18:39:57.924Z,93.10
2022-12-26T18:42:26.642Z,93.20
2022-12-26T18:44:54.713Z,93.20
2022-12-26T18:47:22.985Z,93.30
2022-12-26T18:49:50.340Z,93.30
2022-12-26T18:52:18.247Z,93.20
2022-12-26T18:54:46.147Z,93.20
2022-12-26T18:57:19.933Z,93.10
2022-12-26T18:59:48.513Z,93.10
2022-12-26T19:02:35.920Z,92.80
2022-12-26T19:05:03.937Z,93.20
2022-12-26T19:07:31.694Z,93.20
2022-12-26T19:10:01.084Z,93.30
2022-12-26T19:12:29.474Z,93.20
2022-12-26T19:14:56.673Z,93.20
2022-12-26T19:17:24.893Z,93.20
2022-12-26T19:19:52.090Z,93.20
2022-12-26T19:22:21.332Z,93.20
2022-12-26T19:24:48.811Z,93.20
2022-12-26T19:27:16.371Z,93.10
2022-12-26T19:29:43.620Z,92.80
2022-12-26T19:32:12.305Z,93.00
2022-12-26T19:34:39.528Z,93.20
2022-12-26T19:37:07.033Z,93.00
2022-12-26T19:39:34.896Z,93.10
2022-12-26T19:42:02.153Z,93.20
2022-12-26T19:44:31.324Z,92.90
2022-12-26T19:47:11.645Z,93.00
2022-12-26T19:49:41.701Z,93.10
2022-12-26T19:52:10.514Z,93.10
2022-12-26T19:54:38.041Z,93.30
2022-12-26T19:57:05.696Z,93.30
2022-12-26T19:59:33.391Z,93.30
2022-12-26T20:02:01.027Z,93.30
2022-12-26T20:04:28.870Z,93.20
2022-12-26T20:07:00.335Z,93.10
2022-12-26T20:09:27.552Z,93.20
2022-12-26T20:11:54.782Z,93.20
2022-12-26T20:14:26.919Z,93.20
2022-12-26T20:17:05.766Z,92.90
2022-12-26T20:19:36.158Z,93.10
2022-12-26T20:22:06.403Z,92.90
2022-12-26T20:24:33.966Z,93.10
2022-12-26T20:27:01.988Z,93.00
2022-12-26T20:29:29.713Z,93.10
2022-12-26T20:31:58.035Z,93.00
2022-12-26T20:34:26.607Z,93.10
2022-12-26T20:36:53.788Z,92.90
2022-12-26T20:39:22.777Z,92.50
2022-12-26T20:41:50.213Z,92.60
2022-12-26T20:44:18.263Z,92.50
2022-12-26T20:46:46.255Z,92.40
2022-12-26T20:49:13.991Z,92.20
2022-12-26T20:51:43.865Z,92.40
2022-12-26T20:54:14.562Z,92.30
2022-12-26T20:56:42.722Z,92.30
2022-12-26T20:59:12.838Z,92.10
2022-12-26T21:01:40.631Z,92.30
2022-12-26T21:04:16.461Z,92.00
2022-12-26T21:06:48.951Z,92.10
2022-12-26T21:09:16.812Z,92.00
2022-12-26T21:11:45.851Z,92.00
2022-12-26T21:14:19.195Z,92.00
2022-12-26T21:21:07.958Z,91.90
2022-12-26T21:23:48.753Z,91.90
2022-12-26T21:26:22.165Z,92.00
2022-12-26T21:28:49.336Z,92.00
2022-12-26T21:31:17.210Z,92.00
2022-12-26T21:33:46.058Z,92.00
2022-12-26T21:36:14.285Z,92.10
2022-12-26T21:38:41.981Z,91.70
2022-12-26T21:41:11.964Z,92.00
2022-12-26T21:43:39.277Z,91.80
2022-12-26T21:46:13.381Z,91.70
2022-12-26T21:48:50.349Z,91.90
2022-12-26T21:51:19.424Z,91.90
2022-12-26T21:53:47.263Z,91.80
2022-12-26T21:56:16.238Z,91.50
2022-12-26T21:59:03.519Z,91.50
2022-12-26T22:01:33.728Z,91.50
2022-12-26T22:04:24.003Z,91.50
2022-12-26T22:06:52.956Z,91.40
2022-12-26T22:09:20.412Z,91.50
2022-12-26T22:12:06.703Z,91.50
2022-12-26T22:14:36.366Z,91.50
2022-12-26T22:17:03.625Z,91.60
2022-12-26T22:19:33.440Z,91.20
2022-12-26T22:22:01.998Z,91.10
2022-12-26T22:24:30.924Z,91.30
2022-12-26T22:26:58.067Z,91.00
2022-12-26T22:29:26.191Z,91.20
2022-12-26T22:31:53.703Z,91.30
2022-12-26T22:34:20.896Z,91.40
2022-12-26T22:36:49.735Z,91.40
2022-12-26T22:39:17.568Z,91.60
2022-12-26T22:41:46.011Z,91.60
2022-12-26T22:44:14.396Z,91.60
2022-12-26T22:46:42.559Z,91.70
2022-12-26T22:49:10.110Z,91.70
2022-12-26T22:51:39.970Z,91.70
2022-12-26T22:54:08.284Z,91.70
2022-12-26T22:56:35.460Z,91.70
2022-12-26T22:59:03.361Z,91.50
2022-12-26T23:01:31.387Z,91.60
2022-12-26T23:04:01.088Z,91.60
2022-12-26T23:06:31.683Z,91.50
2022-12-26T23:09:01.401Z,91.60
2022-12-26T23:11:34.775Z,91.70
2022-12-26T23:14:07.444Z,91.80
2022-12-26T23:17:08.780Z,91.90
2022-12-26T23:20:20.800Z,91.90
2022-12-26T23:22:51.039Z,91.90
2022-12-26T23:25:18.484Z,91.90
2022-12-26T23:28:04.230Z,91.80
2022-12-26T23:30:31.790Z,91.80
2022-12-26T23:33:00.548Z,91.80
2022-12-26T23:35:27.857Z,91.80
2022-12-26T23:37:55.272Z,91.70
2022-12-26T23:40:23.248Z,91.70
2022-12-26T23:42:50.965Z,91.70
2022-12-26T23:45:18.938Z,91.70
2022-12-26T23:47:46.641Z,91.80
2022-12-26T23:50:16.247Z,91.70
2022-12-26T23:52:44.381Z,91.80
2022-12-26T23:55:12.228Z,91.90
2022-12-26T23:57:39.472Z,91.90
